Etusivu
METAR-TAF:

METAR-TAF

Lentoasemat :

Julius Nyereren kansainvälinen lentoasema

Dar es Salaam, Tansania

Leveyspiiri: 06-52S, Pituuspiiri: 039-12E, korkeus merenpinnasta: 55 m

Tämänhetkinen sää

Tämä raportti tehtiin 58 minuuttia sitten, kello 12.00 UTC
Tuuli 10 kn etelästä/kaakosta
Lämpötila 31°C
Kosteus 40%
Ilmanpaine 1013 hPa
Näkyvyys 10 km tai enemmän
Muutamia pilviä 3200 ft:n korkeudessa

METAR: HTDA 301200Z 16010KT 9999 FEW032 31/16 Q1013 NOSIG

Aika: 15:58 (12:58 UTC)

Sääennuste

Tämä raportti tehtiin 7 tuntia ja 58 minuuttia sitten, kello 05.00 UTC
Ennuste voimassa 30. päivästä klo 06 UTC - 31. päivään klo 12 UTC
Tuuli 15 kn etelästä
Näkyvyys 10 km tai enemmän
Hajanaisia pilviä 3000 ft:n korkeudessa
Tulossa
30. päivästä klo 17 UTC - 30. päivään klo 19 UTC
Tuuli 5 kn lännestä/lounaasta

TAF: HTDA 300500Z 3006/3112 19015KT 9999 SCT030 BECMG 3017/3019 24005KT

Säähavainnot ja -ennusteet yli 4000 lentoasemalta (METAR- ja TAF-raportit).

Käytössä olevat sääasemat on merkitty karttaan keltaisilla ja punaisilla pisteillä.

Aseta hiiri pisteen päälle nähdäksesi sääaseman nimen.

Klikkaa sitten nähdäksesi säähavainnot ja -ennusteet.

Kartan vaihtaminen: klikkaa mustalla rastilla varustettuja vihreitä pisteitä, niin voit zoomata sisään; viivalla varustettua vihreää pistettä, niin voit zoomata ulos tai vihreitä nuolia, niin pääset viereisille kartoille.


METAR-TAF: